createdAt,value
2019-01-16T00:00:15.251Z,3.20
2019-01-16T00:03:11.888Z,3.20
2019-01-16T00:06:10.213Z,3.30
2019-01-16T00:09:00.580Z,3.30
2019-01-16T00:12:02.878Z,3.20
2019-01-16T00:14:53.170Z,3.10
2019-01-16T00:17:37.951Z,3.00
2019-01-16T00:20:42.251Z,2.90
2019-01-16T00:23:29.629Z,3.00
2019-01-16T00:26:16.456Z,3.00
2019-01-16T00:29:06.645Z,2.90
2019-01-16T00:31:51.611Z,2.90
2019-01-16T00:34:41.453Z,2.80
2019-01-16T00:37:34.712Z,2.70
2019-01-16T00:40:20.201Z,2.60
2019-01-16T00:43:25.470Z,2.50
2019-01-16T00:46:11.445Z,2.40
2019-01-16T00:49:01.577Z,2.30
2019-01-16T00:51:54.869Z,2.40
2019-01-16T00:54:45.005Z,2.50
2019-01-16T00:57:32.502Z,2.50
2019-01-16T01:00:29.061Z,2.50
2019-01-16T01:03:15.133Z,2.60
2019-01-16T01:06:02.729Z,2.50
2019-01-16T01:09:08.269Z,2.30
2019-01-16T01:12:10.599Z,2.30
2019-01-16T01:14:56.471Z,2.20
2019-01-16T01:17:59.025Z,2.20
2019-01-16T01:21:01.745Z,2.00
2019-01-16T01:23:52.162Z,1.80
2019-01-16T01:26:42.399Z,1.90
2019-01-16T01:29:33.058Z,2.00
2019-01-16T01:32:20.494Z,2.00
2019-01-16T01:35:06.454Z,1.90
2019-01-16T01:37:52.297Z,1.80
2019-01-16T01:40:51.669Z,1.70
2019-01-16T01:43:57.293Z,1.70
2019-01-16T01:46:53.797Z,1.60
2019-01-16T01:49:34.395Z,1.60
2019-01-16T01:52:20.109Z,1.50
2019-01-16T01:55:05.828Z,1.50
2019-01-16T01:57:56.085Z,1.60
2019-01-16T02:00:55.658Z,1.50
2019-01-16T02:03:41.402Z,1.40
2019-01-16T02:06:30.731Z,1.30
2019-01-16T02:09:20.824Z,1.20
2019-01-16T02:12:07.141Z,1.20
2019-01-16T02:14:52.885Z,1.30
2019-01-16T02:17:41.696Z,1.30
2019-01-16T02:20:29.788Z,1.20
2019-01-16T02:23:11.682Z,1.30
2019-01-16T02:25:54.697Z,1.20
2019-01-16T02:28:37.497Z,1.10
2019-01-16T02:31:36.839Z,1.20
2019-01-16T02:34:22.116Z,1.10
2019-01-16T02:37:15.664Z,1.20
2019-01-16T02:40:08.841Z,1.20
2019-01-16T02:42:45.090Z,1.20
2019-01-16T02:45:38.703Z,1.30
2019-01-16T02:48:26.301Z,1.20
2019-01-16T02:51:22.781Z,1.10
2019-01-16T02:54:08.882Z,0.90
2019-01-16T02:57:14.370Z,0.90
2019-01-16T02:59:57.034Z,1.00
2019-01-16T03:02:47.919Z,0.80
2019-01-16T03:05:44.539Z,0.70
2019-01-16T03:08:30.579Z,0.70
2019-01-16T03:11:20.734Z,0.70
2019-01-16T03:13:57.258Z,0.70
2019-01-16T03:16:43.300Z,0.80
2019-01-16T03:19:33.789Z,0.70
2019-01-16T03:22:28.104Z,0.80
2019-01-16T03:25:15.693Z,0.80
2019-01-16T03:28:01.938Z,0.70
2019-01-16T03:30:40.323Z,0.60
2019-01-16T03:33:27.765Z,0.40
2019-01-16T03:36:06.954Z,0.40
2019-01-16T03:39:12.589Z,0.40
2019-01-16T03:41:57.286Z,0.50
2019-01-16T03:44:48.676Z,0.50
2019-01-16T03:47:44.881Z,0.40
2019-01-16T03:50:32.541Z,0.40
2019-01-16T03:53:32.341Z,0.40
2019-01-16T03:56:18.342Z,0.40
2019-01-16T03:59:08.740Z,0.40
2019-01-16T04:01:59.130Z,0.40
2019-01-16T04:04:46.636Z,0.40
2019-01-16T04:07:32.459Z,0.40
2019-01-16T04:10:20.378Z,0.40
2019-01-16T04:13:06.429Z,0.30
2019-01-16T04:15:51.105Z,0.20
2019-01-16T04:18:36.853Z,0.20
2019-01-16T04:21:17.022Z,0.20
2019-01-16T04:24:06.792Z,0.20
2019-01-16T04:27:12.280Z,0.10
2019-01-16T04:30:11.717Z,0.00
2019-01-16T04:32:53.822Z,0.00
2019-01-16T04:35:32.117Z,-0.10
2019-01-16T04:38:19.563Z,-0.20
2019-01-16T04:41:02.861Z,-0.20
2019-01-16T04:43:45.818Z,-0.20
2019-01-16T04:46:31.834Z,-0.10
2019-01-16T04:49:11.369Z,-0.20
2019-01-16T04:51:55.859Z,-0.20
2019-01-16T04:54:35.290Z,-0.20
2019-01-16T04:57:16.709Z,-0.10
2019-01-16T05:00:06.864Z,-0.20
2019-01-16T05:03:00.002Z,-0.20
2019-01-16T05:05:43.878Z,-0.20
2019-01-16T05:08:43.381Z,-0.10
2019-01-16T05:11:33.750Z,-0.20
2019-01-16T05:14:19.747Z,-0.30
2019-01-16T05:17:09.853Z,-0.30
2019-01-16T05:19:57.830Z,-0.30
2019-01-16T05:22:48.313Z,-0.40
2019-01-16T05:25:38.404Z,-0.50
2019-01-16T05:28:26.565Z,-0.50
2019-01-16T05:31:19.958Z,-0.40
2019-01-16T05:34:16.146Z,-0.50
2019-01-16T05:37:15.617Z,-0.50
2019-01-16T05:39:58.662Z,-0.40
2019-01-16T05:42:58.194Z,-0.50
2019-01-16T05:45:44.236Z,-0.40
2019-01-16T05:48:39.593Z,-0.40
2019-01-16T05:51:18.840Z,-0.50
2019-01-16T05:54:09.529Z,-0.40
2019-01-16T05:56:55.672Z,-0.50
2019-01-16T05:59:45.754Z,-0.50
2019-01-16T06:02:42.259Z,-0.60
2019-01-16T06:05:38.916Z,-0.60
2019-01-16T06:08:15.285Z,-0.60
2019-01-16T06:11:18.165Z,-0.50
2019-01-16T06:13:54.433Z,-0.50
2019-01-16T06:16:29.693Z,-0.50
2019-01-16T06:19:10.788Z,-0.50
2019-01-16T06:21:58.085Z,-0.50
2019-01-16T06:24:45.578Z,-0.60
2019-01-16T06:27:33.723Z,-0.50
2019-01-16T06:30:31.286Z,-0.50
2019-01-16T06:33:30.929Z,-0.50
2019-01-16T06:36:17.161Z,-0.60
2019-01-16T06:39:03.301Z,-0.60
2019-01-16T06:41:53.709Z,-0.60
2019-01-16T06:44:51.015Z,-0.60
2019-01-16T06:47:36.889Z,-0.60
2019-01-16T06:50:27.585Z,-0.50
2019-01-16T06:53:15.026Z,-0.50
2019-01-16T06:56:08.685Z,-0.50
2019-01-16T06:58:59.198Z,-0.60
2019-01-16T07:01:38.247Z,-0.50
2019-01-16T07:04:24.713Z,-0.60
2019-01-16T07:07:10.421Z,-0.60
2019-01-16T07:09:56.193Z,-0.50
2019-01-16T07:12:52.496Z,-0.50
2019-01-16T07:15:48.784Z,-0.50
2019-01-16T07:18:42.209Z,-0.50
2019-01-16T07:21:32.637Z,-0.50
2019-01-16T07:24:24.720Z,-0.60
2019-01-16T07:27:10.535Z,-0.60
2019-01-16T07:29:56.259Z,-0.60
2019-01-16T07:33:01.606Z,-0.50
2019-01-16T07:35:47.225Z,-0.50
2019-01-16T07:38:33.509Z,-0.50
2019-01-16T07:41:16.914Z,-0.40
2019-01-16T07:44:02.861Z,-0.30
2019-01-16T07:46:48.915Z,-0.20
2019-01-16T07:49:54.152Z,-0.20
2019-01-16T07:52:34.574Z,-0.10
2019-01-16T07:55:34.229Z,0.00
2019-01-16T07:58:21.721Z,0.00
2019-01-16T08:01:10.797Z,0.10
2019-01-16T08:04:10.364Z,0.20
2019-01-16T08:07:09.509Z,0.20
2019-01-16T08:09:55.557Z,0.20
2019-01-16T08:12:45.845Z,0.30
2019-01-16T08:15:33.505Z,0.40
2019-01-16T08:18:18.816Z,0.40
2019-01-16T08:21:18.427Z,0.50
2019-01-16T08:24:14.889Z,0.60
2019-01-16T08:27:05.281Z,0.80
2019-01-16T08:30:04.793Z,0.80
2019-01-16T08:32:47.593Z,1.00
2019-01-16T08:35:50.943Z,1.00
2019-01-16T08:38:39.653Z,1.20
2019-01-16T08:41:36.136Z,1.30
2019-01-16T08:44:13.904Z,1.40
2019-01-16T08:46:51.534Z,1.50
2019-01-16T08:49:37.500Z,1.60
2019-01-16T08:52:32.200Z,1.70
2019-01-16T08:55:20.155Z,1.90
2019-01-16T08:58:13.765Z,2.00
2019-01-16T09:00:59.556Z,2.30
2019-01-16T09:03:59.445Z,2.50
2019-01-16T09:06:47.409Z,2.70
2019-01-16T09:09:50.438Z,2.90
2019-01-16T09:12:36.629Z,3.10
2019-01-16T09:15:23.713Z,3.20
2019-01-16T09:18:20.322Z,3.20
2019-01-16T09:21:14.309Z,3.30
2019-01-16T09:24:01.872Z,3.50
2019-01-16T09:26:55.462Z,3.70
2019-01-16T09:29:52.176Z,4.00
2019-01-16T09:32:41.054Z,4.30
2019-01-16T09:35:28.764Z,4.60
2019-01-16T09:38:15.490Z,4.90
2019-01-16T09:41:14.994Z,5.10
2019-01-16T09:44:01.909Z,5.20
2019-01-16T09:46:53.480Z,5.20
2019-01-16T09:49:39.864Z,5.20
2019-01-16T09:52:34.690Z,5.10
2019-01-16T09:55:21.464Z,5.30
2019-01-16T09:58:11.507Z,5.40
2019-01-16T10:00:59.161Z,5.50
2019-01-16T10:03:46.827Z,5.80
2019-01-16T10:06:26.105Z,6.20
2019-01-16T10:09:12.523Z,6.40
2019-01-16T10:11:53.116Z,6.70
2019-01-16T10:14:48.981Z,6.90
2019-01-16T10:17:39.191Z,7.20
2019-01-16T10:20:34.381Z,7.50
2019-01-16T10:23:25.463Z,7.70
2019-01-16T10:26:11.562Z,7.90
2019-01-16T10:28:59.169Z,8.10
2019-01-16T10:31:45.322Z,8.40
2019-01-16T10:34:31.333Z,8.60
2019-01-16T10:37:12.689Z,8.60
2019-01-16T10:40:12.097Z,8.80
2019-01-16T10:43:02.217Z,8.90
2019-01-16T10:45:44.140Z,9.10
2019-01-16T10:48:31.578Z,9.20
2019-01-16T10:51:24.989Z,9.40
2019-01-16T10:54:05.165Z,9.60
2019-01-16T10:56:55.560Z,9.60
2019-01-16T10:59:43.009Z,9.50
2019-01-16T11:02:24.518Z,9.40
2019-01-16T11:05:30.026Z,9.40
2019-01-16T11:08:11.070Z,9.50
2019-01-16T11:10:56.889Z,9.60
2019-01-16T11:13:47.036Z,9.70
2019-01-16T11:16:26.197Z,9.60
2019-01-16T11:19:07.330Z,9.60
2019-01-16T11:21:53.462Z,9.60
2019-01-16T11:24:49.732Z,9.70
2019-01-16T11:27:52.175Z,10.00
2019-01-16T11:30:51.732Z,10.20
2019-01-16T11:33:37.197Z,10.50
2019-01-16T11:36:30.646Z,10.70
2019-01-16T11:39:18.248Z,10.90
2019-01-16T11:41:58.999Z,10.80
2019-01-16T11:44:36.759Z,10.90
2019-01-16T11:47:26.850Z,11.00
2019-01-16T11:50:20.049Z,11.00
2019-01-16T11:53:13.518Z,10.90
2019-01-16T11:56:07.150Z,10.70
2019-01-16T11:58:54.429Z,10.40
2019-01-16T12:01:59.836Z,10.30
2019-01-16T12:04:48.738Z,10.40
2019-01-16T12:07:36.855Z,10.60
2019-01-16T12:10:28.756Z,10.40
2019-01-16T12:13:28.094Z,10.40
2019-01-16T12:16:13.425Z,10.40
2019-01-16T12:19:05.012Z,10.40
2019-01-16T12:21:45.302Z,10.40
2019-01-16T12:24:44.679Z,10.50
2019-01-16T12:27:30.750Z,10.60
2019-01-16T12:30:21.163Z,10.60
2019-01-16T12:33:08.706Z,10.70
2019-01-16T12:36:07.937Z,10.70
2019-01-16T12:39:13.486Z,10.70
2019-01-16T12:42:18.997Z,10.80
2019-01-16T12:44:56.695Z,10.80
2019-01-16T12:47:41.657Z,10.90
2019-01-16T12:50:41.562Z,11.10
2019-01-16T12:53:27.796Z,11.10
2019-01-16T12:56:07.191Z,11.10
2019-01-16T12:59:06.825Z,11.10
2019-01-16T13:02:07.571Z,11.20
2019-01-16T13:04:54.778Z,11.20
2019-01-16T13:07:48.233Z,11.30
2019-01-16T13:10:38.444Z,11.30
2019-01-16T13:13:34.676Z,11.30
2019-01-16T13:16:40.906Z,11.30
2019-01-16T13:19:46.474Z,11.40
2019-01-16T13:22:32.429Z,11.40
2019-01-16T13:25:22.616Z,11.50
2019-01-16T13:28:08.451Z,11.50
2019-01-16T13:30:46.538Z,11.60
2019-01-16T13:33:39.306Z,11.50
2019-01-16T13:36:25.289Z,11.60
2019-01-16T13:39:15.680Z,11.50
2019-01-16T13:42:05.955Z,11.50
2019-01-16T13:44:48.393Z,11.50
2019-01-16T13:47:38.785Z,11.50
2019-01-16T13:50:26.189Z,11.60
2019-01-16T13:53:07.656Z,11.60
2019-01-16T13:55:53.618Z,11.60
2019-01-16T13:58:46.977Z,11.60
2019-01-16T14:01:46.245Z,11.60
2019-01-16T14:04:25.235Z,11.50
2019-01-16T14:07:06.165Z,11.60
2019-01-16T14:09:45.237Z,11.60
2019-01-16T14:12:31.260Z,11.70
2019-01-16T14:15:21.729Z,11.70
2019-01-16T14:18:07.409Z,11.90
2019-01-16T14:21:00.813Z,11.90
2019-01-16T14:23:45.080Z,12.00
2019-01-16T14:26:25.981Z,12.00
2019-01-16T14:29:22.438Z,12.00
2019-01-16T14:32:08.645Z,12.00
2019-01-16T14:35:01.970Z,12.10
2019-01-16T14:37:47.677Z,12.10
2019-01-16T14:40:35.213Z,12.20
2019-01-16T14:43:21.469Z,12.10
2019-01-16T14:46:03.582Z,12.20
2019-01-16T14:48:48.877Z,12.20
2019-01-16T14:51:34.809Z,12.20
2019-01-16T14:54:31.112Z,12.20
2019-01-16T14:57:24.908Z,12.20
2019-01-16T15:00:07.739Z,12.30
2019-01-16T15:03:02.172Z,12.20
2019-01-16T15:05:49.625Z,12.20
2019-01-16T15:08:37.113Z,12.20
2019-01-16T15:11:30.326Z,12.10
2019-01-16T15:14:33.354Z,12.20
2019-01-16T15:17:35.977Z,12.10
2019-01-16T15:20:28.410Z,12.10
2019-01-16T15:23:14.998Z,12.00
2019-01-16T15:25:53.158Z,12.00
2019-01-16T15:28:39.541Z,12.00
2019-01-16T15:31:35.742Z,12.00
2019-01-16T15:34:24.304Z,11.90
2019-01-16T15:37:23.775Z,11.90
2019-01-16T15:40:23.221Z,11.90
2019-01-16T15:43:10.774Z,11.80
2019-01-16T15:46:13.544Z,11.80
2019-01-16T15:49:03.969Z,11.70
2019-01-16T15:51:56.837Z,11.70
2019-01-16T15:54:41.804Z,11.60
2019-01-16T15:57:27.459Z,11.70
2019-01-16T16:00:29.802Z,11.80
2019-01-16T16:03:22.198Z,11.60
2019-01-16T16:06:22.113Z,11.60
2019-01-16T16:09:09.576Z,11.50
2019-01-16T16:11:55.592Z,11.50
2019-01-16T16:14:42.331Z,11.50
2019-01-16T16:17:28.602Z,11.50
2019-01-16T16:20:18.941Z,11.50
2019-01-16T16:23:04.697Z,11.40
2019-01-16T16:26:01.074Z,11.40
2019-01-16T16:28:54.448Z,11.40
2019-01-16T16:31:47.901Z,11.40
2019-01-16T16:34:33.865Z,11.30
2019-01-16T16:37:24.075Z,11.30
2019-01-16T16:40:20.326Z,11.30
2019-01-16T16:43:08.033Z,11.30
2019-01-16T16:46:13.621Z,11.30
2019-01-16T16:49:15.865Z,11.30
2019-01-16T16:52:06.074Z,11.20
2019-01-16T16:54:59.240Z,11.20
2019-01-16T16:57:46.615Z,11.20
2019-01-16T17:00:46.372Z,11.10
2019-01-16T17:03:36.606Z,11.10
2019-01-16T17:06:39.161Z,11.00
2019-01-16T17:09:20.017Z,11.00
2019-01-16T17:12:19.588Z,11.00
2019-01-16T17:14:58.962Z,10.90
2019-01-16T17:17:44.770Z,10.90
2019-01-16T17:20:25.931Z,10.90
2019-01-16T17:23:31.599Z,10.90
2019-01-16T17:26:28.134Z,10.90
2019-01-16T17:29:14.211Z,10.80
2019-01-16T17:32:10.438Z,10.80
2019-01-16T17:35:00.805Z,10.70
2019-01-16T17:37:42.227Z,10.80
2019-01-16T17:40:20.998Z,10.70
2019-01-16T17:43:14.686Z,10.70
2019-01-16T17:46:00.974Z,10.70
2019-01-16T17:48:46.960Z,10.80
2019-01-16T17:51:34.578Z,10.70
2019-01-16T17:54:31.222Z,10.70
2019-01-16T17:57:28.193Z,10.70
2019-01-16T18:00:14.301Z,10.70
2019-01-16T18:03:08.238Z,10.70
2019-01-16T18:05:53.835Z,10.80
2019-01-16T18:08:34.748Z,10.70
2019-01-16T18:11:22.290Z,10.80
2019-01-16T18:14:10.004Z,10.80
2019-01-16T18:16:57.550Z,10.80
2019-01-16T18:19:37.705Z,10.80
2019-01-16T18:22:25.267Z,10.80
2019-01-16T18:25:11.427Z,10.80
2019-01-16T18:27:58.926Z,10.80
2019-01-16T18:30:46.900Z,10.80
2019-01-16T18:33:23.297Z,10.90
2019-01-16T18:36:01.817Z,10.90
2019-01-16T18:38:47.601Z,10.80
2019-01-16T18:41:41.253Z,10.90
2019-01-16T18:44:34.437Z,10.90
2019-01-16T18:47:37.205Z,11.00
2019-01-16T18:50:36.442Z,10.90
2019-01-16T18:53:30.009Z,10.90
2019-01-16T18:56:16.617Z,10.80
2019-01-16T18:59:02.534Z,10.80
2019-01-16T19:02:01.963Z,10.70
2019-01-16T19:05:04.632Z,10.70
2019-01-16T19:07:58.034Z,10.60
2019-01-16T19:10:48.154Z,10.60
2019-01-16T19:13:34.378Z,10.50
2019-01-16T19:16:22.020Z,10.50
2019-01-16T19:19:03.409Z,10.50
2019-01-16T19:21:48.245Z,10.30
2019-01-16T19:24:34.442Z,10.20
2019-01-16T19:27:22.530Z,10.20
2019-01-16T19:30:19.385Z,10.20
2019-01-16T19:33:17.158Z,10.20
2019-01-16T19:36:07.770Z,10.20
2019-01-16T19:39:33.660Z,10.20
2019-01-16T19:42:41.377Z,10.20
2019-01-16T19:45:47.457Z,10.20
2019-01-16T19:48:34.164Z,10.20
2019-01-16T19:51:26.544Z,10.20
2019-01-16T19:54:20.152Z,10.20
2019-01-16T19:56:59.342Z,10.20
2019-01-16T19:59:49.669Z,10.20
2019-01-16T20:02:52.401Z,10.20
2019-01-16T20:05:41.163Z,10.20
2019-01-16T20:08:28.185Z,10.20
2019-01-16T20:11:10.604Z,10.20
2019-01-16T20:14:04.792Z,10.10
2019-01-16T20:16:50.993Z,10.20
2019-01-16T20:19:41.650Z,10.20
2019-01-16T20:22:33.562Z,10.20
2019-01-16T20:25:15.137Z,10.20
2019-01-16T20:28:01.481Z,10.20
2019-01-16T20:31:02.112Z,10.10
2019-01-16T20:33:55.774Z,10.10
2019-01-16T20:36:52.283Z,10.10
2019-01-16T20:39:42.059Z,10.10
2019-01-16T20:42:32.752Z,10.10
2019-01-16T20:45:18.670Z,10.10
2019-01-16T20:48:29.173Z,10.10
2019-01-16T20:51:20.869Z,10.20
2019-01-16T20:54:27.081Z,10.10
2019-01-16T20:57:28.912Z,10.10
2019-01-16T21:00:27.015Z,10.10
2019-01-16T21:03:24.846Z,10.10
2019-01-16T21:06:34.638Z,10.00
2019-01-16T21:09:31.926Z,10.10
2019-01-16T21:12:13.951Z,10.00
2019-01-16T21:15:00.269Z,10.00
2019-01-16T21:17:54.009Z,10.00
2019-01-16T21:21:05.522Z,10.00
2019-01-16T21:23:58.762Z,10.00
2019-01-16T21:27:02.914Z,10.00
2019-01-16T21:29:50.442Z,9.90
2019-01-16T21:32:56.269Z,9.90
2019-01-16T21:36:02.370Z,9.90
2019-01-16T21:39:04.039Z,9.90
2019-01-16T21:42:27.394Z,9.90
2019-01-16T21:45:33.157Z,9.90
2019-01-16T21:48:30.206Z,9.50
2019-01-16T21:51:20.577Z,9.80
2019-01-16T21:53:57.287Z,9.80
2019-01-16T21:56:43.089Z,9.80
2019-01-16T21:59:45.177Z,9.80
2019-01-16T22:06:52.862Z,9.70
2019-01-16T22:10:22.366Z,9.80
2019-01-16T22:13:42.526Z,9.80
2019-01-16T22:16:56.847Z,9.80
2019-01-16T22:19:44.755Z,9.80
2019-01-16T22:22:23.214Z,9.80
2019-01-16T22:25:22.634Z,9.80
2019-01-16T22:28:12.829Z,9.90
2019-01-16T22:31:00.401Z,9.80
2019-01-16T22:33:47.844Z,9.80
2019-01-16T22:36:35.453Z,9.80
2019-01-16T22:39:23.958Z,9.80
2019-01-16T22:42:00.748Z,9.80
2019-01-16T22:44:46.881Z,9.80
2019-01-16T22:47:34.480Z,9.70
2019-01-16T22:50:23.135Z,9.70
2019-01-16T22:53:08.970Z,9.70
2019-01-16T22:56:05.426Z,9.70
2019-01-16T22:58:43.249Z,9.70
2019-01-16T23:01:20.958Z,9.70
2019-01-16T23:04:07.146Z,9.70
2019-01-16T23:06:57.425Z,9.70
2019-01-16T23:09:53.720Z,9.70
2019-01-16T23:12:43.868Z,9.70
2019-01-16T23:15:33.981Z,9.60
2019-01-16T23:18:21.592Z,9.70
2019-01-16T23:21:20.227Z,9.60
2019-01-16T23:24:06.136Z,9.50
2019-01-16T23:26:54.580Z,9.50
2019-01-16T23:29:40.810Z,9.30
2019-01-16T23:32:28.526Z,9.50
2019-01-16T23:35:16.031Z,9.50
2019-01-16T23:38:03.690Z,9.50
2019-01-16T23:40:49.846Z,9.50
2019-01-16T23:43:35.781Z,9.50
2019-01-16T23:46:21.632Z,9.50
2019-01-16T23:49:09.080Z,9.50
2019-01-16T23:51:55.392Z,9.50
2019-01-16T23:54:41.360Z,9.50
2019-01-16T23:57:20.564Z,9.70
